createdAt,value
2022-09-28T00:00:03.472Z,8.97
2022-09-28T00:02:40.566Z,8.97
2022-09-28T00:05:09.088Z,8.98
2022-09-28T00:07:36.616Z,8.96
2022-09-28T00:10:04.365Z,8.96
2022-09-28T00:12:32.104Z,8.96
2022-09-28T00:14:59.727Z,8.95
2022-09-28T00:17:28.613Z,8.94
2022-09-28T00:19:57.955Z,8.92
2022-09-28T00:22:25.492Z,8.92
2022-09-28T00:24:53.054Z,8.90
2022-09-28T00:27:20.690Z,8.91
2022-09-28T00:29:48.289Z,8.89
2022-09-28T00:32:16.603Z,8.89
2022-09-28T00:34:46.659Z,8.88
2022-09-28T00:37:15.308Z,8.86
2022-09-28T00:39:43.903Z,8.84
2022-09-28T00:42:14.259Z,8.81
2022-09-28T00:44:45.272Z,8.81
2022-09-28T00:47:44.359Z,8.79
2022-09-28T00:50:19.199Z,8.76
2022-09-28T00:52:53.129Z,8.74
2022-09-28T00:55:26.204Z,8.72
2022-09-28T00:57:57.862Z,8.71
2022-09-28T01:00:25.612Z,8.70
2022-09-28T01:02:53.400Z,8.69
2022-09-28T01:05:24.171Z,8.67
2022-09-28T01:07:52.164Z,8.66
2022-09-28T01:10:19.758Z,8.64
2022-09-28T01:12:47.371Z,8.64
2022-09-28T01:15:15.810Z,8.62
2022-09-28T01:17:56.553Z,8.63
2022-09-28T01:20:55.748Z,8.61
2022-09-28T01:23:49.528Z,8.61
2022-09-28T01:26:50.432Z,8.61
2022-09-28T01:29:27.619Z,8.60
2022-09-28T01:32:02.248Z,8.61
2022-09-28T01:34:34.463Z,8.60
2022-09-28T01:37:05.271Z,8.60
2022-09-28T01:39:38.675Z,8.58
2022-09-28T01:42:11.896Z,8.59
2022-09-28T01:44:43.910Z,8.59
2022-09-28T01:47:14.971Z,8.60
2022-09-28T01:49:46.904Z,8.59
2022-09-28T01:52:16.307Z,8.60
2022-09-28T01:54:51.540Z,8.62
2022-09-28T01:57:26.550Z,8.59
2022-09-28T02:00:00.369Z,8.61
2022-09-28T02:02:34.923Z,8.61
2022-09-28T02:05:08.807Z,8.62
2022-09-28T02:07:42.389Z,8.62
2022-09-28T02:10:15.941Z,8.62
2022-09-28T02:12:49.648Z,8.64
2022-09-28T02:15:21.540Z,8.62
2022-09-28T02:17:50.040Z,8.62
2022-09-28T02:20:18.210Z,8.62
2022-09-28T02:22:51.479Z,8.61
2022-09-28T02:25:25.862Z,8.63
2022-09-28T02:28:00.892Z,8.62
2022-09-28T02:30:31.295Z,8.62
2022-09-28T02:33:04.361Z,8.60
2022-09-28T02:35:33.890Z,8.60
2022-09-28T02:38:01.542Z,8.59
2022-09-28T02:40:33.222Z,8.59
2022-09-28T02:43:10.452Z,8.59
2022-09-28T02:45:52.061Z,8.59
2022-09-28T02:48:43.912Z,8.58
2022-09-28T02:51:22.971Z,8.60
2022-09-28T02:54:18.514Z,8.58
2022-09-28T02:57:11.976Z,8.59
2022-09-28T02:59:48.852Z,8.59
2022-09-28T03:02:25.701Z,8.58
2022-09-28T03:05:16.570Z,8.57
2022-09-28T03:07:51.493Z,8.56
2022-09-28T03:10:26.794Z,8.57
2022-09-28T03:12:55.901Z,8.56
2022-09-28T03:15:27.320Z,8.55
2022-09-28T03:17:57.463Z,8.56
2022-09-28T03:20:25.799Z,8.56
2022-09-28T03:23:12.703Z,8.54
2022-09-28T03:25:41.558Z,8.54
2022-09-28T03:28:09.396Z,8.54
2022-09-28T03:30:43.334Z,8.54
2022-09-28T03:33:11.218Z,8.54
2022-09-28T03:35:39.563Z,8.54
2022-09-28T03:38:07.182Z,8.53
2022-09-28T03:40:38.623Z,8.53
2022-09-28T03:43:06.322Z,8.51
2022-09-28T03:45:34.082Z,8.52
2022-09-28T03:48:03.122Z,8.52
2022-09-28T03:50:30.804Z,8.54
2022-09-28T03:53:03.638Z,8.53
2022-09-28T03:55:31.599Z,8.51
2022-09-28T03:57:59.339Z,8.53
2022-09-28T04:00:27.481Z,8.52
2022-09-28T04:02:56.196Z,8.52
2022-09-28T04:05:25.287Z,8.52
2022-09-28T04:07:56.062Z,8.53
2022-09-28T04:10:23.934Z,8.54
2022-09-28T04:12:55.281Z,8.55
2022-09-28T04:15:23.000Z,8.54
2022-09-28T04:17:50.636Z,8.54
2022-09-28T04:20:40.944Z,8.55
2022-09-28T04:23:12.920Z,8.55
2022-09-28T04:25:40.571Z,8.55
2022-09-28T04:28:27.406Z,8.56
2022-09-28T04:30:55.079Z,8.58
2022-09-28T04:33:22.885Z,8.57
2022-09-28T04:35:51.787Z,8.57
2022-09-28T04:38:35.626Z,8.57
2022-09-28T04:41:08.035Z,8.57
2022-09-28T04:43:35.756Z,8.57
2022-09-28T04:46:05.486Z,8.56
2022-09-28T04:48:39.817Z,8.56
2022-09-28T04:51:22.441Z,8.56
2022-09-28T04:53:50.059Z,8.56
2022-09-28T04:56:20.038Z,8.56
2022-09-28T04:58:51.916Z,8.56
2022-09-28T05:01:24.268Z,8.55
2022-09-28T05:03:58.054Z,8.55
2022-09-28T05:06:35.584Z,8.55
2022-09-28T05:09:06.539Z,8.54
2022-09-28T05:11:34.351Z,8.53
2022-09-28T05:14:02.430Z,8.53
2022-09-28T05:16:33.623Z,8.54
2022-09-28T05:19:19.856Z,8.52
2022-09-28T05:21:49.155Z,8.53
2022-09-28T05:24:16.768Z,8.51
2022-09-28T05:26:49.803Z,8.51
2022-09-28T05:29:17.727Z,8.53
2022-09-28T05:31:45.451Z,8.51
2022-09-28T05:34:18.438Z,8.51
2022-09-28T05:36:46.647Z,8.51
2022-09-28T05:39:15.569Z,8.52
2022-09-28T05:41:43.394Z,8.51
2022-09-28T05:44:11.330Z,8.51
2022-09-28T05:46:39.092Z,8.52
2022-09-28T05:49:06.719Z,8.52
2022-09-28T05:51:34.289Z,8.53
2022-09-28T05:54:05.646Z,8.54
2022-09-28T05:56:37.832Z,8.54
2022-09-28T05:59:07.662Z,8.55
2022-09-28T06:01:35.422Z,8.55
2022-09-28T06:04:04.517Z,8.55
2022-09-28T06:06:32.340Z,8.57
2022-09-28T06:08:59.859Z,8.59
2022-09-28T06:11:40.040Z,8.58
2022-09-28T06:14:19.849Z,8.59
2022-09-28T06:16:47.515Z,8.60
2022-09-28T06:19:15.363Z,8.62
2022-09-28T06:22:01.246Z,8.63
2022-09-28T06:24:30.713Z,8.65
2022-09-28T06:26:59.620Z,8.66
2022-09-28T06:29:29.154Z,8.68
2022-09-28T06:31:57.744Z,8.69
2022-09-28T06:34:25.672Z,8.70
2022-09-28T06:36:53.806Z,8.70
2022-09-28T06:39:21.448Z,8.71
2022-09-28T06:41:49.103Z,8.72
2022-09-28T06:44:20.138Z,8.72
2022-09-28T06:47:06.359Z,8.72
2022-09-28T06:49:56.795Z,8.73
2022-09-28T06:52:42.900Z,8.75
2022-09-28T06:55:26.784Z,8.74
2022-09-28T06:58:01.904Z,8.75
2022-09-28T07:00:34.987Z,8.76
2022-09-28T07:03:03.316Z,8.78
2022-09-28T07:05:57.238Z,8.81
2022-09-28T07:09:14.743Z,8.82
2022-09-28T07:12:10.079Z,8.85
2022-09-28T07:14:50.191Z,8.85
2022-09-28T07:17:19.461Z,8.85
2022-09-28T07:19:52.643Z,8.88
2022-09-28T07:22:33.334Z,8.86
2022-09-28T07:25:09.433Z,8.87
2022-09-28T07:27:48.173Z,8.86
2022-09-28T07:30:39.416Z,8.86
2022-09-28T07:33:17.443Z,8.86
2022-09-28T07:35:55.644Z,8.88
2022-09-28T07:38:27.875Z,8.89
2022-09-28T07:41:13.924Z,8.89
2022-09-28T07:43:47.641Z,8.90
2022-09-28T07:46:16.774Z,8.91
2022-09-28T07:49:08.352Z,8.93
2022-09-28T07:52:01.652Z,8.96
2022-09-28T07:54:30.216Z,8.99
2022-09-28T07:57:16.297Z,8.99
2022-09-28T08:00:08.863Z,9.00
2022-09-28T08:02:43.876Z,9.03
2022-09-28T08:05:17.040Z,9.05
2022-09-28T08:07:44.682Z,9.07
2022-09-28T08:10:13.025Z,9.10
2022-09-28T08:13:06.370Z,9.12
2022-09-28T08:16:00.900Z,9.15
2022-09-28T08:18:57.729Z,9.19
2022-09-28T08:21:45.061Z,9.19
2022-09-28T08:24:13.642Z,9.20
2022-09-28T08:26:41.299Z,9.21
2022-09-28T08:29:09.177Z,9.22
2022-09-28T08:31:48.658Z,9.25
2022-09-28T08:34:34.585Z,9.25
2022-09-28T08:37:22.086Z,9.30
2022-09-28T08:40:17.263Z,9.32
2022-09-28T08:43:04.253Z,9.36
2022-09-28T08:45:54.898Z,9.40
2022-09-28T08:49:20.989Z,9.43
2022-09-28T08:52:01.923Z,9.46
2022-09-28T08:54:45.912Z,9.46
2022-09-28T08:57:23.639Z,9.47
2022-09-28T08:59:54.500Z,9.49
2022-09-28T09:02:33.315Z,9.51
2022-09-28T09:05:44.660Z,9.51
2022-09-28T09:08:38.216Z,9.52
2022-09-28T09:11:20.092Z,9.55
2022-09-28T09:14:03.811Z,9.57
2022-09-28T09:16:41.012Z,9.60
2022-09-28T09:19:51.121Z,9.65
2022-09-28T09:22:40.668Z,9.71
2022-09-28T09:25:19.734Z,9.80
2022-09-28T09:28:08.284Z,9.85
2022-09-28T09:30:46.236Z,9.87
2022-09-28T09:33:39.320Z,9.95
2022-09-28T09:36:44.340Z,9.95
2022-09-28T09:39:43.843Z,9.98
2022-09-28T09:42:49.053Z,9.94
2022-09-28T09:46:01.691Z,9.92
2022-09-28T09:48:54.015Z,9.94
2022-09-28T09:51:29.899Z,9.97
2022-09-28T09:54:02.927Z,10.01
2022-09-28T09:56:38.444Z,10.05
2022-09-28T09:59:15.212Z,10.08
2022-09-28T10:02:18.386Z,10.12
2022-09-28T10:04:57.228Z,10.21
2022-09-28T10:07:43.109Z,10.25
2022-09-28T10:10:16.804Z,10.25
2022-09-28T10:12:51.039Z,10.28
2022-09-28T10:15:23.701Z,10.27
2022-09-28T10:18:12.062Z,10.26
2022-09-28T10:20:59.944Z,10.27
2022-09-28T10:23:40.764Z,10.25
2022-09-28T10:26:25.100Z,10.23
2022-09-28T10:28:57.329Z,10.21
2022-09-28T10:31:37.186Z,10.21
2022-09-28T10:34:13.991Z,10.21
2022-09-28T10:36:50.631Z,10.23
2022-09-28T10:39:33.202Z,10.25
2022-09-28T10:42:04.204Z,10.26
2022-09-28T10:44:34.967Z,10.25
2022-09-28T10:47:30.517Z,10.23
2022-09-28T10:49:59.899Z,10.22
2022-09-28T10:52:32.956Z,10.22
2022-09-28T10:55:01.462Z,10.24
2022-09-28T10:57:33.628Z,10.26
2022-09-28T11:00:08.128Z,10.29
2022-09-28T11:02:44.710Z,10.35
2022-09-28T11:05:27.739Z,10.46
2022-09-28T11:07:59.780Z,10.51
2022-09-28T11:10:37.150Z,10.58
2022-09-28T11:13:11.998Z,10.60
2022-09-28T11:15:45.127Z,10.61
2022-09-28T11:18:29.492Z,10.64
2022-09-28T11:21:13.122Z,10.64
2022-09-28T11:23:57.886Z,10.67
2022-09-28T11:26:25.890Z,10.67
2022-09-28T11:28:54.628Z,10.72
2022-09-28T11:31:34.344Z,10.76
2022-09-28T11:34:13.864Z,10.80
2022-09-28T11:37:21.958Z,10.87
2022-09-28T11:39:58.378Z,10.93
2022-09-28T11:42:36.880Z,10.95
2022-09-28T11:45:22.289Z,10.99
2022-09-28T11:47:55.271Z,11.04
2022-09-28T11:50:29.387Z,11.09
2022-09-28T11:53:11.729Z,11.14
2022-09-28T11:55:41.539Z,11.16
2022-09-28T11:58:13.801Z,11.16
2022-09-28T12:00:45.737Z,11.18
2022-09-28T12:03:17.412Z,11.14
2022-09-28T12:05:50.178Z,11.10
2022-09-28T12:08:25.183Z,11.10
2022-09-28T12:11:11.272Z,11.10
2022-09-28T12:14:01.702Z,11.10
2022-09-28T12:17:03.693Z,11.09
2022-09-28T12:19:24.904Z,11.09
2022-09-28T12:21:56.937Z,11.11
2022-09-28T12:24:27.564Z,11.14
2022-09-28T12:26:59.147Z,11.15
2022-09-28T12:29:30.512Z,11.17
2022-09-28T12:32:10.942Z,11.21
2022-09-28T12:34:38.531Z,11.28
2022-09-28T12:37:27.122Z,11.30
2022-09-28T12:40:07.362Z,11.34
2022-09-28T12:42:53.469Z,11.38
2022-09-28T12:46:07.047Z,11.40
2022-09-28T12:49:03.039Z,11.43
2022-09-28T12:51:48.606Z,11.50
2022-09-28T12:54:38.913Z,11.55
2022-09-28T12:57:30.061Z,11.59
2022-09-28T13:00:03.735Z,11.62
2022-09-28T13:02:48.939Z,11.66
2022-09-28T13:05:40.656Z,11.71
2022-09-28T13:08:14.810Z,11.72
2022-09-28T13:10:50.137Z,11.75
2022-09-28T13:13:32.386Z,11.81
2022-09-28T13:16:05.674Z,11.82
2022-09-28T13:18:40.464Z,11.86
2022-09-28T13:21:17.051Z,11.91
2022-09-28T13:23:47.425Z,11.98
2022-09-28T13:26:27.067Z,12.02
2022-09-28T13:29:03.469Z,12.09
2022-09-28T13:31:35.956Z,12.15
2022-09-28T13:34:07.103Z,12.22
2022-09-28T13:36:40.476Z,12.30
2022-09-28T13:39:38.374Z,12.44
2022-09-28T13:42:09.034Z,12.51
2022-09-28T13:45:02.794Z,12.55
2022-09-28T13:47:51.538Z,12.65
2022-09-28T13:50:28.722Z,12.80
2022-09-28T13:53:04.414Z,12.94
2022-09-28T13:55:48.346Z,13.14
2022-09-28T13:58:23.460Z,13.31
2022-09-28T14:00:57.713Z,13.41
2022-09-28T14:03:27.752Z,13.51
2022-09-28T14:06:09.865Z,13.60
2022-09-28T14:08:44.656Z,13.70
2022-09-28T14:11:49.114Z,13.64
2022-09-28T14:14:53.234Z,13.59
2022-09-28T14:17:54.786Z,13.51
2022-09-28T14:20:27.825Z,13.42
2022-09-28T14:23:15.098Z,13.33
2022-09-28T14:25:46.091Z,13.26
2022-09-28T14:28:29.567Z,13.23
2022-09-28T14:30:58.181Z,13.15
2022-09-28T14:33:30.256Z,13.07
2022-09-28T14:35:59.251Z,13.02
2022-09-28T14:38:49.918Z,12.93
2022-09-28T14:41:31.190Z,12.84
2022-09-28T14:44:09.340Z,12.77
2022-09-28T14:46:45.395Z,12.70
2022-09-28T14:49:50.264Z,12.64
2022-09-28T14:52:40.219Z,12.57
2022-09-28T14:55:15.449Z,12.51
2022-09-28T14:57:43.306Z,12.46
2022-09-28T15:00:20.419Z,12.40
2022-09-28T15:02:52.838Z,12.35
2022-09-28T15:05:25.276Z,12.34
2022-09-28T15:07:54.484Z,12.29
2022-09-28T15:10:31.234Z,12.26
2022-09-28T15:13:01.192Z,12.23
2022-09-28T15:15:33.404Z,12.22
2022-09-28T15:18:09.639Z,12.21
2022-09-28T15:20:41.530Z,12.21
2022-09-28T15:23:25.336Z,12.21
2022-09-28T15:25:54.425Z,12.23
2022-09-28T15:28:24.160Z,12.21
2022-09-28T15:30:52.355Z,12.23
2022-09-28T15:33:43.891Z,12.22
2022-09-28T15:36:18.820Z,12.24
2022-09-28T15:38:54.816Z,12.34
2022-09-28T15:41:24.830Z,12.32
2022-09-28T15:44:08.363Z,12.33
2022-09-28T15:46:38.553Z,12.37
2022-09-28T15:49:08.290Z,12.38
2022-09-28T15:51:52.115Z,12.42
2022-09-28T15:54:24.822Z,12.44
2022-09-28T15:56:54.935Z,12.46
2022-09-28T15:59:31.673Z,12.46
2022-09-28T16:02:13.578Z,12.45
2022-09-28T16:04:47.997Z,12.43
2022-09-28T16:07:24.194Z,12.43
2022-09-28T16:10:01.023Z,12.39
2022-09-28T16:12:34.710Z,12.36
2022-09-28T16:15:07.546Z,12.32
2022-09-28T16:17:36.350Z,12.29
2022-09-28T16:20:18.499Z,12.25
2022-09-28T16:22:47.816Z,12.23
2022-09-28T16:25:19.516Z,12.17
2022-09-28T16:27:47.108Z,12.13
2022-09-28T16:30:24.101Z,12.06
2022-09-28T16:32:54.111Z,12.01
2022-09-28T16:35:27.629Z,11.97
2022-09-28T16:38:00.231Z,11.91
2022-09-28T16:40:28.713Z,11.89
2022-09-28T16:43:00.056Z,11.83
2022-09-28T16:45:28.349Z,11.77
2022-09-28T16:47:57.566Z,11.69
2022-09-28T16:50:25.736Z,11.63
2022-09-28T16:53:19.004Z,11.53
2022-09-28T16:55:49.490Z,11.46
2022-09-28T16:58:18.462Z,11.38
2022-09-28T17:00:46.184Z,11.35
2022-09-28T17:03:15.826Z,11.31
2022-09-28T17:05:43.993Z,11.26
2022-09-28T17:08:17.326Z,11.22
2022-09-28T17:11:12.889Z,11.18
2022-09-28T17:13:38.564Z,11.15
2022-09-28T17:16:08.841Z,11.11
2022-09-28T17:18:37.750Z,11.07
2022-09-28T17:21:06.802Z,11.04
2022-09-28T17:23:35.800Z,11.01
2022-09-28T17:26:05.604Z,10.97
2022-09-28T17:28:35.931Z,10.93
2022-09-28T17:31:04.226Z,10.89
2022-09-28T17:33:31.964Z,10.86
2022-09-28T17:36:01.639Z,10.85
2022-09-28T17:38:29.836Z,10.83
2022-09-28T17:40:58.888Z,10.81
2022-09-28T17:43:26.563Z,10.80
2022-09-28T17:45:54.188Z,10.80
2022-09-28T17:48:24.170Z,10.80
2022-09-28T17:50:52.635Z,10.78
2022-09-28T17:53:20.294Z,10.78
2022-09-28T17:55:48.195Z,10.77
2022-09-28T17:58:19.205Z,10.76
2022-09-28T18:00:48.056Z,10.76
2022-09-28T18:03:17.989Z,10.75
2022-09-28T18:05:47.480Z,10.74
2022-09-28T18:08:18.008Z,10.74
2022-09-28T18:10:46.827Z,10.71
2022-09-28T18:13:14.723Z,10.70
2022-09-28T18:15:44.468Z,10.69
2022-09-28T18:18:12.880Z,10.68
2022-09-28T18:20:41.316Z,10.65
2022-09-28T18:23:08.948Z,10.63
2022-09-28T18:25:40.277Z,10.61
2022-09-28T18:28:08.092Z,10.59
2022-09-28T18:30:38.802Z,10.58
2022-09-28T18:33:08.786Z,10.58
2022-09-28T18:35:36.862Z,10.57
2022-09-28T18:38:05.106Z,10.57
2022-09-28T18:40:33.121Z,10.58
2022-09-28T18:43:00.892Z,10.58
2022-09-28T18:45:28.644Z,10.58
2022-09-28T18:47:56.370Z,10.59
2022-09-28T18:50:25.395Z,10.58
2022-09-28T18:52:52.997Z,10.58
2022-09-28T18:55:20.715Z,10.58
2022-09-28T18:57:48.601Z,10.59
2022-09-28T19:00:16.477Z,10.57
2022-09-28T19:02:44.110Z,10.58
2022-09-28T19:05:12.192Z,10.57
2022-09-28T19:07:41.129Z,10.58
2022-09-28T19:10:09.583Z,10.58
2022-09-28T19:12:37.201Z,10.58
2022-09-28T19:15:05.303Z,10.59
2022-09-28T19:17:34.049Z,10.60
2022-09-28T19:20:01.908Z,10.60
2022-09-28T19:22:30.443Z,10.59
2022-09-28T19:24:59.603Z,10.61
2022-09-28T19:27:27.129Z,10.60
2022-09-28T19:29:54.712Z,10.59
2022-09-28T19:32:22.323Z,10.59
2022-09-28T19:34:49.851Z,10.60
2022-09-28T19:37:17.436Z,10.60
2022-09-28T19:39:45.317Z,10.60
2022-09-28T19:42:14.272Z,10.57
2022-09-28T19:44:42.075Z,10.56
2022-09-28T19:47:11.533Z,10.56
2022-09-28T19:49:40.568Z,10.54
2022-09-28T19:52:15.591Z,10.54
2022-09-28T19:54:45.138Z,10.53
2022-09-28T19:57:15.752Z,10.52
2022-09-28T19:59:48.398Z,10.51
2022-09-28T20:02:18.483Z,10.50
2022-09-28T20:04:46.098Z,10.46
2022-09-28T20:07:13.830Z,10.43
2022-09-28T20:09:41.959Z,10.40
2022-09-28T20:12:09.832Z,10.39
2022-09-28T20:14:40.416Z,10.36
2022-09-28T20:17:08.596Z,10.34
2022-09-28T20:19:36.256Z,10.30
2022-09-28T20:22:03.942Z,10.29
2022-09-28T20:24:31.633Z,10.26
2022-09-28T20:27:01.041Z,10.23
2022-09-28T20:29:28.676Z,10.21
2022-09-28T20:31:57.717Z,10.18
2022-09-28T20:34:25.313Z,10.16
2022-09-28T20:36:52.861Z,10.14
2022-09-28T20:39:20.734Z,10.10
2022-09-28T20:41:49.646Z,10.08
2022-09-28T20:44:17.305Z,10.06
2022-09-28T20:46:45.140Z,10.03
2022-09-28T20:49:13.995Z,9.99
2022-09-28T20:51:41.636Z,9.97
2022-09-28T20:54:09.340Z,9.94
2022-09-28T20:56:38.191Z,9.89
2022-09-28T20:59:07.527Z,9.85
2022-09-28T21:01:35.934Z,9.80
2022-09-28T21:04:06.835Z,9.75
2022-09-28T21:06:38.145Z,9.71
2022-09-28T21:09:07.150Z,9.68
2022-09-28T21:11:35.541Z,9.66
2022-09-28T21:14:05.973Z,9.61
2022-09-28T21:16:36.013Z,9.58
2022-09-28T21:19:04.370Z,9.56
2022-09-28T21:21:32.025Z,9.53
2022-09-28T21:24:01.936Z,9.50
2022-09-28T21:26:31.850Z,9.48
2022-09-28T21:29:02.040Z,9.45
2022-09-28T21:31:32.574Z,9.43
2022-09-28T21:34:00.556Z,9.40
2022-09-28T21:36:28.121Z,9.38
2022-09-28T21:38:56.126Z,9.35
2022-09-28T21:41:25.607Z,9.35
2022-09-28T21:43:53.598Z,9.34
2022-09-28T21:46:21.286Z,9.32
2022-09-28T21:48:52.620Z,9.30
2022-09-28T21:51:20.941Z,9.29
2022-09-28T21:53:49.417Z,9.27
2022-09-28T21:56:17.408Z,9.25
2022-09-28T21:58:46.364Z,9.24
2022-09-28T22:01:16.508Z,9.23
2022-09-28T22:03:46.548Z,9.22
2022-09-28T22:06:15.252Z,9.21
2022-09-28T22:08:42.835Z,9.20
2022-09-28T22:11:12.491Z,9.20
2022-09-28T22:13:42.336Z,9.18
2022-09-28T22:16:12.047Z,9.19
2022-09-28T22:18:40.254Z,9.16
2022-09-28T22:21:11.124Z,9.16
2022-09-28T22:23:41.052Z,9.16
2022-09-28T22:26:11.624Z,9.15
2022-09-28T22:28:40.584Z,9.15
2022-09-28T22:31:08.219Z,9.15
2022-09-28T22:33:37.132Z,9.15
2022-09-28T22:36:05.240Z,9.15
2022-09-28T22:38:33.306Z,9.14
2022-09-28T22:41:01.322Z,9.13
2022-09-28T22:43:29.083Z,9.14
2022-09-28T22:46:03.179Z,9.13
2022-09-28T22:48:31.096Z,9.12
2022-09-28T22:51:00.633Z,9.12
2022-09-28T22:53:28.747Z,9.13
2022-09-28T22:55:57.639Z,9.13
2022-09-28T22:58:25.584Z,9.13
2022-09-28T23:00:53.348Z,9.12
2022-09-28T23:03:21.522Z,9.13
2022-09-28T23:05:58.148Z,9.13
2022-09-28T23:08:27.599Z,9.12
2022-09-28T23:10:55.386Z,9.13
2022-09-28T23:13:23.308Z,9.12
2022-09-28T23:15:58.152Z,9.12
2022-09-28T23:18:26.036Z,9.11
2022-09-28T23:20:54.505Z,9.10
2022-09-28T23:23:22.245Z,9.09
2022-09-28T23:25:51.240Z,9.10
2022-09-28T23:28:19.083Z,9.10
2022-09-28T23:30:47.188Z,9.09
2022-09-28T23:33:15.912Z,9.08
2022-09-28T23:35:43.948Z,9.09
2022-09-28T23:38:13.405Z,9.07
2022-09-28T23:40:41.660Z,9.07
2022-09-28T23:43:10.676Z,9.06
2022-09-28T23:45:38.223Z,9.05
2022-09-28T23:48:06.219Z,9.03
2022-09-28T23:50:33.838Z,9.03
2022-09-28T23:53:02.271Z,9.01
2022-09-28T23:55:29.773Z,9.01
2022-09-28T23:57:58.629Z,9.00
